Flight Track Log - Related Links

Times and Time Zones

All times are in EDT time to prevent confusion due to time zone crossing. See the DAL3970 flight status page for this flight to view local times or setup timezone preferences in your user account.


Time Position Orientation Groundspeed Altitude Reporting Facility
EDT Latitude Longitude Course Direction KTS MPH feet Rate Location/Type
Fri 07:49:21 AM 44.7411 -89.6397 101° East 173 199 3,000  Level Minneapolis Center
Fri 07:50:23 AM 44.7228 -89.5553 107° East 228 262 4,900 1,902 Climbing Minneapolis Center
Fri 07:51:00 AM 44.7123 -89.2514 107° East  Level FlightAware Approximate
Fri 07:51:24 AM 44.6956 -89.4453 109° East 294 338 6,900  Level Minneapolis Center
Fri 07:52:00 AM 44.6833 -89.1157 90° East  Level FlightAware Approximate
Fri 07:52:25 AM 44.6842 -89.3178 97° East 316 364 9,500  Level Minneapolis Center
Fri 07:53:00 AM 44.6733 -88.9765 109° East  Level FlightAware Approximate
Fri 07:53:26 AM 44.6703 -89.1933 99° East 337 388 11,000  Level Minneapolis Center
Fri 07:54:00 AM 44.6440 -88.8414 101° East  Level FlightAware Approximate
Fri 07:54:27 AM 44.6558 -89.0667 99° East 368 423 12,500  Level Minneapolis Center
Fri 07:55:28 AM 44.6372 -88.9114 100° East 369 425 14,400 1,610 Climbing Minneapolis Center
Fri 07:56:30 AM 44.6208 -88.7608 99° East 385 443 15,800 1,366 Climbing Minneapolis Center
Fri 07:57:31 AM 44.6031 -88.6081 99° East 399 459 17,200 1,328 Climbing Minneapolis Center
Fri 07:58:32 AM 44.5817 -88.4258 99° East 406 467 18,500 1,328 Climbing Minneapolis Center
Fri 07:59:33 AM 44.5631 -88.2639 99° East 416 479 19,900 1,268 Climbing Minneapolis Center
Fri 08:00:35 AM 44.5131 -88.1153 115° Southeast 420 483 21,100 976 Climbing Minneapolis Center
Fri 08:01:36 AM 44.4433 -87.9775 125° Southeast 430 495 21,900 836 Climbing Minneapolis Center
Fri 08:02:37 AM 44.3714 -87.8369 126° Southeast 439 505 22,800 1,033 Climbing Minneapolis Center
Fri 08:03:38 AM 44.2981 -87.6956 126° Southeast 445 512 24,000 976 Climbing Minneapolis Center
Fri 08:04:40 AM 44.2256 -87.5558 126° Southeast 444 511 24,800 488 Climbing Minneapolis Center
Fri 08:05:41 AM 44.1508 -87.4117 126° Southeast 453 521 25,000 98 Climbing Minneapolis Center
Fri 08:06:42 AM 44.0744 -87.2672 126° Southeast 458 527 25,000  Level Minneapolis Center
Fri 08:07:44 AM 43.9944 -87.1172 127° Southeast 464 534 25,000  Level Minneapolis Center
Fri 08:08:45 AM 43.9208 -86.9783 126° Southeast 452 520 25,000  Level Minneapolis Center
Fri 08:09:46 AM 43.8644 -86.8714 126° Southeast 439 505 25,000  Level Minneapolis Center
Fri 08:10:48 AM 43.7833 -86.7208 127° Southeast 409 471 25,000  Level Minneapolis Center
Fri 08:11:49 AM 43.7189 -86.5997 126° Southeast 395 455 25,000  Level Minneapolis Center
Fri 08:12:50 AM 43.6542 -86.4800 127° Southeast 389 448 25,000  Level Minneapolis Center
Fri 08:13:52 AM 43.5739 -86.3311 127° Southeast 396 456 25,000  Level Minneapolis Center
Fri 08:14:20 AM 43.5481 -86.2836 127° Southeast 400 460 25,000  Level Chicago Center
Fri 08:15:22 AM 43.4786 -86.1578 127° Southeast 408 470 25,000  Level Chicago Center
Fri 08:16:24 AM 43.4039 -86.0214 127° Southeast 432 497 25,000  Level Chicago Center
Fri 08:17:25 AM 43.3606 -85.8506 109° East 468 539 25,000  Level Chicago Center
Fri 08:18:27 AM 43.3286 -85.6692 104° East 479 551 25,000  Level Chicago Center
Fri 08:19:29 AM 43.2964 -85.4881 104° East 485 558 25,000 -98 Level Chicago Center
Fri 08:20:30 AM 43.2572 -85.2711 104° East 484 557 24,800 -711 Descending Chicago Center
Fri 08:20:45 AM 43.2486 -85.2239 104° East 482 555 24,100 -1,440 Descending Cleveland Center
Fri 08:21:45 AM 43.2175 -85.0592 104° East 471 542 23,000 -550 Descending Cleveland Center
Fri 08:22:45 AM 43.1864 -84.8944 104° East 459 528 23,000  Level Cleveland Center
Fri 08:23:45 AM 43.1939 -84.7411 86° East 421 484 23,000 -100 Level Cleveland Center
Fri 08:24:45 AM 43.2036 -84.5908 85° East 402 463 22,800 -900 Descending Cleveland Center
Fri 08:25:45 AM 43.2125 -84.4461 85° East 391 450 21,200 -1,550 Descending Cleveland Center
Fri 08:26:45 AM 43.2214 -84.3042 85° East 381 438 19,700 -1,450 Descending Cleveland Center
Fri 08:27:45 AM 43.1917 -84.1886 109° East 365 420 18,300 -1,250 Descending Cleveland Center
Fri 08:28:45 AM 43.1558 -84.0667 112° Southeast 353 406 17,200 -1,300 Descending Cleveland Center
Fri 08:29:45 AM 43.1156 -83.9478 115° Southeast 348 400 15,700 -1,550 Descending Cleveland Center
Fri 08:30:45 AM 43.0361 -83.8867 151° Southeast 317 365 14,100 -1,450 Descending Cleveland Center
Fri 08:31:45 AM 42.9525 -83.8228 151° Southeast 328 377 12,800 -1,333 Descending Cleveland Center
Fri 08:32:15 AM 42.9011 -83.7889 154° Southeast 341 392 12,100 -800 Descending Cleveland Center
Fri 08:32:45 AM 42.8706 -83.7647 150° Southeast 333 383 12,000 -97 Descending Cleveland Center
Fri 08:33:17 AM 42.8194 -83.7281 152° Southeast 329 379 12,000 -500 Level Cleveland Center
Fri 08:33:45 AM 42.7908 -83.7097 155° Southeast 333 383 11,500 -1,527 Descending Cleveland Center
Fri 08:34:12 AM 42.7478 -83.6850 157° South 320 368 10,600 -1,600 Descending Cleveland Center
Fri 08:34:45 AM 42.7108 -83.6633 157° South 327 376 9,900 -1,443 Descending Cleveland Center
Fri 08:35:31 AM 42.6497 -83.6094 147° Southeast 305 351 8,700 -1,579 Descending Cleveland Center
Fri 08:36:20 AM 42.6036 -83.5367 131° Southeast 295 339 7,400 -1,459 Descending Cleveland Center
Fri 08:36:45 AM 42.5856 -83.5133 136° Southeast 299 344 6,900 -1,279 Descending Cleveland Center
Fri 08:37:21 AM 42.5494 -83.4581 132° Southeast 276 318 6,100 -900 Descending Cleveland Center
Fri 08:37:45 AM 42.5353 -83.4350 130° Southeast 284 327 6,000 -247 Descending Cleveland Center
Fri 08:38:34 AM 42.4911 -83.3681 132° Southeast 270 311 5,800 -796 Descending Cleveland Center
Fri 08:39:23 AM 42.4550 -83.3131 132° Southeast 261 300 4,700 -1,352 Descending Cleveland Center
Fri 08:39:45 AM 42.4303 -83.2922 148° Southeast 265 305 4,200 -764 Descending Cleveland Center
Fri 08:40:18 AM 42.3906 -83.2961 184° South 224 258 4,000 -480 Descending Cleveland Center
Fri 08:41:25 AM 42.3344 -83.2967 180° South 160 184 3,400 -744 Descending Cleveland Center
Fri 08:42:27 AM 42.2986 -83.3147 200° South 134 154 2,400 -968 Descending Cleveland Center

Login

Don't have an account? Register now (free) for customized features, flight alerts, and more!